KMPZ/MPZ METAR and TAF weather

Enter ICAO airport designator
Station Type Date Time Source
KMPZ METAR 2019/06/27 09:55 UTC NOAA

KMPZ 270955Z AUTO 00000KT 10SM CLR 20/20 A3012 RMK AO2


Station Type Date Time Source
KMPZ Decoded METAR 2019/06/27 09:55 UTC NOAA

Mount Pleasant, Mount Pleasant Municipal Airport, IA, United States (KMPZ) 40-56-48N 091-30-40W
Jun 27, 2019 - 05:55 AM EDT / 2019.06.27 0955 UTC
Wind: Calm:0
Visibility: 10 mile(s):0
Sky conditions: clear
Temperature: 68 F (20 C)
Dew Point: 68 F (20 C)
Relative Humidity: 100%
Pressure (altimeter): 30.12 in. Hg (1019 hPa)
ob: KMPZ 270955Z AUTO 00000KT 10SM CLR 20/20 A3012 RMK AO2
cycle: 10

Station Type Date Time Source
KMPZ TAF UTC NOAA

Error!

Example: see airport list